Time;durP1;ratioP1;P1;durP2;ratioP2;P2;SDS_P1;SDS_P2;PMS_P1;PMS_P2;Temp;Humidity;BMP_temperature;BMP_pressure;BME280_temperature;BME280_humidity;BME280_pressure;Samples;Min_cycle;Max_cycle;Signal;HPM_P1;HPM_P2
2023/02/23 00:00:43;;;;;;;15.90;10.32;;;;;;;14.46;74.72;98422.78;5115579;28;20405;-47
2023/02/23 00:03:21;;;;;;;24.05;11.65;;;;;;;14.52;72.93;98426.34;5097396;28;20375;-48
2023/02/23 00:05:51;;;;;;;19.88;10.52;;;;;;;14.52;72.42;98421.06;5115136;28;20034;-47
2023/02/23 00:08:28;;;;;;;20.00;9.90;;;;;;;14.53;72.41;98423.47;5115246;28;20016;-48
2023/02/23 00:10:57;;;;;;;16.52;10.38;;;;;;;14.67;71.36;98417.97;5096781;28;20031;-47
2023/02/23 00:13:25;;;;;;;21.00;10.68;;;;;;;14.76;70.46;98414.72;5115070;28;20067;-47
2023/02/23 00:16:03;;;;;;;23.92;11.48;;;;;;;14.69;70.06;98418.53;5096784;28;20126;-47
2023/02/23 00:21:24;;;;;;;19.90;10.68;;;;;;;14.55;69.92;98408.22;5114845;28;20030;-47
2023/02/23 00:24:18;;;;;;;15.13;10.45;;;;;;;14.45;68.49;98409.84;5097013;28;20046;-47
2023/02/23 00:26:46;;;;;;;19.63;10.35;;;;;;;14.18;69.60;98403.22;5096464;28;20035;-47
2023/02/23 00:29:26;;;;;;;17.80;10.55;;;;;;;14.12;69.91;98408.59;5079785;28;20492;-47
2023/02/23 00:31:54;;;;;;;20.92;11.13;;;;;;;14.22;70.33;98403.53;5114735;28;20066;-47
2023/02/23 00:34:22;;;;;;;30.08;11.52;;;;;;;14.37;70.04;98408.34;5096306;28;20032;-47
2023/02/23 00:36:54;;;;;;;22.10;11.32;;;;;;;14.54;69.54;98401.31;5113413;28;20542;-47
2023/02/23 00:39:24;;;;;;;21.60;11.90;;;;;;;14.69;70.20;98405.31;5114502;28;20503;-47
2023/02/23 00:42:02;;;;;;;17.77;11.73;;;;;;;14.81;69.79;98411.41;5114393;28;20028;-48
2023/02/23 00:44:32;;;;;;;16.45;10.35;;;;;;;14.94;69.41;98400.53;5114431;28;20020;-47
2023/02/23 00:47:06;;;;;;;17.55;10.80;;;;;;;15.05;67.62;98413.94;5096597;28;20019;-46
2023/02/23 00:49:33;;;;;;;20.13;11.20;;;;;;;15.09;67.61;98404.50;5114395;28;20101;-47
2023/02/23 00:52:08;;;;;;;14.75;11.05;;;;;;;15.17;67.42;98401.47;5114410;28;20085;-48
2023/02/23 00:54:44;;;;;;;22.60;11.15;;;;;;;15.28;67.27;98399.84;5114373;28;20016;-48
2023/02/23 00:57:25;;;;;;;24.45;12.35;;;;;;;15.18;66.74;98397.81;5095924;28;20039;-47
2023/02/23 01:03:09;;;;;;;18.90;12.90;;;;;;;14.82;68.02;98401.63;5114170;28;20125;-48
2023/02/23 01:05:51;;;;;;;29.88;13.90;;;;;;;14.69;66.85;98400.88;5114009;28;20028;-47
2023/02/23 01:08:30;;;;;;;18.85;13.02;;;;;;;14.60;67.57;98398.81;5114178;28;20024;-48
2023/02/23 01:11:16;;;;;;;22.40;14.10;;;;;;;14.60;68.28;98402.25;5113867;28;20576;-47
2023/02/23 01:13:45;;;;;;;24.13;12.88;;;;;;;14.68;68.83;98406.38;5114013;28;20023;-47
2023/02/23 01:16:31;;;;;;;24.05;14.70;;;;;;;14.70;68.20;98407.72;5113814;28;20068;-48
2023/02/23 01:19:22;;;;;;;21.40;13.68;;;;;;;14.59;68.73;98405.94;5078801;28;20045;-47
2023/02/23 01:22:01;;;;;;;18.70;12.10;;;;;;;14.46;67.91;98404.31;5095298;28;20116;-47
2023/02/23 01:24:28;;;;;;;22.30;14.43;;;;;;;14.43;68.65;98407.44;5113695;28;20018;-47
2023/02/23 01:27:01;;;;;;;22.80;15.15;;;;;;;14.43;68.55;98399.50;5113702;28;20027;-46
2023/02/23 01:29:27;;;;;;;22.38;14.73;;;;;;;14.43;69.14;98399.50;5113577;28;20031;-47
2023/02/23 01:31:54;;;;;;;21.17;14.43;;;;;;;14.29;68.86;98404.22;5095204;28;20023;-47
2023/02/23 01:34:21;;;;;;;20.45;13.73;;;;;;;14.10;69.17;98392.97;5113567;28;20161;-47
2023/02/23 01:36:48;;;;;;;17.73;13.48;;;;;;;14.03;68.38;98397.59;5113530;28;20547;-47
2023/02/23 01:39:18;;;;;;;18.85;13.65;;;;;;;13.89;68.09;98397.00;5095216;28;20057;-47
2023/02/23 01:41:46;;;;;;;21.33;14.90;;;;;;;13.79;68.58;98400.19;5095044;28;20034;-47
2023/02/23 01:44:13;;;;;;;24.10;15.75;;;;;;;13.76;69.60;98395.41;5095108;28;20019;-47
2023/02/23 01:46:44;;;;;;;25.70;14.65;;;;;;;13.82;69.88;98387.59;5113214;28;20035;-47
2023/02/23 01:49:18;;;;;;;25.63;14.73;;;;;;;13.75;70.55;98387.72;5113167;28;20126;-47
2023/02/23 01:51:52;;;;;;;25.30;14.90;;;;;;;13.71;70.46;98384.72;5113328;28;20036;-47
2023/02/23 01:54:29;;;;;;;19.20;16.45;;;;;;;13.48;70.66;98374.94;5113197;28;20091;-47
2023/02/23 01:57:00;;;;;;;24.85;15.77;;;;;;;13.29;71.29;98376.84;5113146;28;20116;-47
2023/02/23 01:59:35;;;;;;;20.88;15.05;;;;;;;13.23;71.13;98382.97;5112872;28;20047;-47
2023/02/23 02:02:04;;;;;;;25.60;17.08;;;;;;;13.22;71.66;98373.50;5113070;28;20541;-47
2023/02/23 02:04:42;;;;;;;19.88;15.40;;;;;;;13.22;71.75;98370.84;5112930;28;20046;-47
2023/02/23 02:07:21;;;;;;;23.75;15.10;;;;;;;13.22;72.25;98377.94;5094653;28;20092;-47
2023/02/23 02:12:39;;;;;;;21.40;15.80;;;;;;;13.22;72.93;98367.38;5113130;28;20026;-47
2023/02/23 02:15:15;;;;;;;23.08;16.40;;;;;;;13.27;72.72;98360.41;5112849;28;20512;-47
2023/02/23 02:17:47;;;;;;;24.33;16.13;;;;;;;13.30;72.45;98365.28;5112722;28;20146;-47
2023/02/23 02:20:36;;;;;;;19.85;16.15;;;;;;;13.24;72.13;98366.16;5112753;28;20108;-47
2023/02/23 02:23:21;;;;;;;24.30;15.40;;;;;;;13.14;72.28;98363.28;5112683;28;20024;-47
2023/02/23 02:26:44;;;;;;;25.40;16.65;;;;;;;13.09;72.07;98355.22;5112569;28;20066;-47
2023/02/23 02:30:16;;;;;;;25.65;17.63;;;;;;;12.87;72.79;98354.91;5087666;28;20031;-47
2023/02/23 02:33:25;;;;;;;25.45;17.02;;;;;;;12.71;72.22;98358.97;5094219;28;20023;-47
2023/02/23 02:37:01;;;;;;;30.73;17.35;;;;;;;12.63;73.38;98351.38;5112470;28;20416;-47
2023/02/23 02:39:52;;;;;;;22.95;17.75;;;;;;;12.70;73.96;98346.84;5094134;28;20540;-48
2023/02/23 02:43:10;;;;;;;21.27;16.90;;;;;;;12.77;73.53;98347.53;5109287;28;20413;-47
2023/02/23 02:46:11;;;;;;;27.10;16.70;;;;;;;12.63;74.05;98354.00;5112386;28;20058;-48
2023/02/23 02:48:59;;;;;;;22.90;15.48;;;;;;;12.63;74.23;98341.63;5094070;28;20027;-48
2023/02/23 02:52:05;;;;;;;34.45;20.13;;;;;;;12.63;74.21;98344.28;5093921;28;20034;-48
2023/02/23 02:55:11;;;;;;;23.83;18.52;;;;;;;12.53;74.45;98341.38;5112328;28;20020;-47
2023/02/23 02:57:57;;;;;;;29.30;17.15;;;;;;;12.43;74.45;98341.09;5111327;28;20027;-49
2023/02/23 04:18:03;;;;;;;31.25;16.35;;;;;;;11.67;77.49;98320.19;5115365;28;20024;-46
2023/02/23 04:20:31;;;;;;;30.20;17.80;;;;;;;11.69;77.47;98318.16;5115130;28;20484;-46
2023/02/23 04:22:58;;;;;;;25.45;18.10;;;;;;;11.74;77.20;98317.50;5114958;28;20011;-47
2023/02/23 04:25:27;;;;;;;26.42;17.60;;;;;;;11.69;76.46;98310.28;5096533;28;20059;-46
2023/02/23 04:28:07;;;;;;;24.50;17.15;;;;;;;11.57;76.03;98309.38;5096846;28;20019;-48
2023/02/23 04:30:42;;;;;;;33.55;18.35;;;;;;;11.47;76.29;98315.09;5096460;28;20084;-47
2023/02/23 04:33:27;;;;;;;26.80;16.88;;;;;;;11.34;76.57;98313.38;5096488;28;20464;-47
2023/02/23 04:36:17;;;;;;;29.52;21.80;;;;;;;11.35;76.82;98312.38;5114517;28;20035;-47
2023/02/23 04:39:02;;;;;;;26.67;18.58;;;;;;;11.41;76.36;98315.97;5096401;28;20030;-47
2023/02/23 04:41:42;;;;;;;26.17;18.45;;;;;;;11.42;76.59;98319.41;5096198;28;20027;-48
2023/02/23 04:44:25;;;;;;;36.33;17.17;;;;;;;11.45;76.64;98309.28;5096208;28;20072;-47
2023/02/23 04:47:14;;;;;;;23.33;16.60;;;;;;;11.47;76.00;98316.91;5114409;28;20115;-47
2023/02/23 04:49:56;;;;;;;29.42;17.77;;;;;;;11.44;76.12;98312.09;5096158;28;20051;-48
2023/02/23 04:52:39;;;;;;;29.65;16.08;;;;;;;11.43;76.11;98307.84;5096134;28;20023;-47
2023/02/23 04:55:24;;;;;;;33.55;18.35;;;;;;;11.32;75.43;98312.78;5095980;28;20531;-47
2023/02/23 04:58:03;;;;;;;29.23;18.60;;;;;;;11.20;76.10;98306.63;5094646;28;20455;-48
2023/02/23 05:00:32;;;;;;;29.48;16.38;;;;;;;11.20;75.98;98315.28;5095995;28;20404;-47
2023/02/23 05:03:16;;;;;;;32.40;16.80;;;;;;;11.20;76.07;98311.88;5096281;28;20026;-48
2023/02/23 05:05:50;;;;;;;23.00;16.95;;;;;;;11.23;75.98;98311.47;5095499;28;20024;-47
2023/02/23 05:08:32;;;;;;;22.10;15.50;;;;;;;11.36;75.91;98310.53;5095817;28;20100;-48
2023/02/23 05:11:08;;;;;;;22.65;18.08;;;;;;;11.45;75.88;98314.53;5095736;28;20111;-47
2023/02/23 05:13:52;;;;;;;25.75;18.23;;;;;;;11.56;75.26;98313.81;5095737;28;20116;-47
2023/02/23 05:16:37;;;;;;;28.33;15.75;;;;;;;11.45;74.48;98308.44;5095508;28;20045;-47
2023/02/23 05:19:04;;;;;;;27.50;16.90;;;;;;;11.30;74.31;98309.56;5095647;28;20118;-47
2023/02/23 05:21:51;;;;;;;27.38;17.52;;;;;;;10.99;74.48;98308.59;5095112;28;20269;-47
2023/02/23 05:24:24;;;;;;;46.30;31.63;;;;;;;10.80;75.04;98312.13;5113813;28;20027;-47
2023/02/23 05:27:12;;;;;;;115.50;104.18;;;;;;;10.70;74.83;98312.56;5113706;28;20027;-47
2023/02/23 05:29:41;;;;;;;107.40;96.18;;;;;;;10.61;75.19;98305.19;5095417;28;20027;-47
2023/02/23 05:32:10;;;;;;;68.10;56.53;;;;;;;10.55;75.59;98310.25;5113661;28;20125;-46
2023/02/23 05:34:39;;;;;;;55.33;43.08;;;;;;;10.54;75.86;98308.66;5095321;28;20039;-47
2023/02/23 05:37:07;;;;;;;34.78;22.38;;;;;;;10.57;76.05;98310.03;5095619;28;20098;-46
2023/02/23 05:39:41;;;;;;;29.10;19.33;;;;;;;10.56;76.09;98308.41;5113513;28;20022;-46
2023/02/23 05:42:14;;;;;;;37.35;19.98;;;;;;;10.55;76.70;98312.88;5113384;28;20074;-46
2023/02/23 05:44:40;;;;;;;29.88;20.08;;;;;;;10.66;76.45;98315.84;5095083;28;20038;-47
2023/02/23 05:47:07;;;;;;;30.42;18.73;;;;;;;10.65;75.95;98315.03;5095036;28;20027;-47
2023/02/23 05:49:52;;;;;;;28.05;19.55;;;;;;;10.57;75.85;98308.22;5109633;28;20032;-46
2023/02/23 05:52:19;;;;;;;39.90;21.85;;;;;;;10.56;76.01;98306.63;5113234;28;20032;-47
2023/02/23 05:54:45;;;;;;;30.73;19.52;;;;;;;10.52;76.38;98304.59;5094885;28;20416;-47
2023/02/23 05:57:12;;;;;;;33.03;19.70;;;;;;;10.48;76.43;98298.16;5094828;28;20024;-47
2023/02/23 05:59:40;;;;;;;26.52;18.83;;;;;;;10.42;76.50;98310.28;5112844;28;20059;-47
2023/02/23 06:02:24;;;;;;;25.23;19.52;;;;;;;10.42;77.20;98305.03;5112965;28;20019;-47
2023/02/23 06:05:05;;;;;;;29.10;21.55;;;;;;;10.45;77.66;98304.63;5113139;28;20019;-47
2023/02/23 06:07:48;;;;;;;24.05;19.77;;;;;;;10.43;77.57;98311.91;5094527;28;20092;-47
2023/02/23 06:10:14;;;;;;;30.75;19.17;;;;;;;10.46;77.71;98311.47;5094648;28;20051;-47
2023/02/23 06:12:56;;;;;;;26.13;18.83;;;;;;;10.53;77.71;98311.47;5077873;28;20043;-47
2023/02/23 06:15:23;;;;;;;23.38;17.58;;;;;;;10.58;76.78;98309.84;5112880;28;20024;-46
2023/02/23 06:17:50;;;;;;;25.95;16.80;;;;;;;10.67;76.39;98312.22;5112850;28;20044;-46
2023/02/23 06:20:17;;;;;;;26.45;17.52;;;;;;;10.69;76.15;98310.97;5094465;28;20052;-47
2023/02/23 06:22:44;;;;;;;34.20;18.67;;;;;;;10.67;76.10;98313.00;5094435;28;20428;-47
2023/02/23 06:25:12;;;;;;;24.63;18.27;;;;;;;10.69;76.21;98316.22;5112657;28;20080;-47
2023/02/23 06:27:39;;;;;;;27.67;18.17;;;;;;;10.69;76.23;98312.81;5112524;28;20542;-47
2023/02/23 06:30:07;;;;;;;47.80;31.45;;;;;;;10.71;75.51;98314.19;5112582;28;20024;-47
2023/02/23 06:32:34;;;;;;;25.92;19.50;;;;;;;10.70;74.53;98311.78;5094220;28;20024;-46
2023/02/23 06:35:01;;;;;;;32.35;22.58;;;;;;;10.54;74.12;98318.31;5111624;28;20050;-46
2023/02/23 06:37:28;;;;;;;35.58;19.77;;;;;;;10.35;74.79;98320.03;5112424;28;20023;-47
2023/02/23 06:39:54;;;;;;;33.28;19.75;;;;;;;10.34;74.69;98321.84;5112478;28;20016;-47
2023/02/23 06:42:22;;;;;;;25.52;19.45;;;;;;;10.23;73.87;98322.44;5112341;28;20042;-47
2023/02/23 06:44:49;;;;;;;29.88;20.15;;;;;;;10.08;74.43;98320.09;5112440;28;20054;-47
2023/02/23 06:47:17;;;;;;;25.90;19.50;;;;;;;10.08;75.09;98325.31;5112344;28;20035;-47
2023/02/23 06:49:44;;;;;;;30.77;18.45;;;;;;;10.15;75.31;98327.91;5112333;28;20054;-47
2023/02/23 06:52:12;;;;;;;26.13;18.88;;;;;;;10.31;75.26;98324.06;5112291;28;20035;-47
2023/02/23 06:54:41;;;;;;;23.98;17.60;;;;;;;10.44;74.54;98324.00;5112218;28;20028;-47
2023/02/23 06:57:10;;;;;;;36.55;21.17;;;;;;;10.58;74.75;98330.00;5112256;28;20026;-47
2023/02/23 06:59:38;;;;;;;39.85;22.83;;;;;;;10.73;74.71;98327.91;5090350;28;20078;-47
2023/02/23 07:02:05;;;;;;;47.65;29.77;;;;;;;10.84;74.44;98338.75;5091775;28;20016;-47
2023/02/23 07:04:32;;;;;;;64.40;33.65;;;;;;;10.91;74.01;98334.28;5091780;28;20039;-46
2023/02/23 07:07:00;;;;;;;39.88;23.15;;;;;;;10.94;73.14;98334.66;5091638;28;20069;-47
2023/02/23 07:09:27;;;;;;;29.67;20.17;;;;;;;11.02;73.53;98341.47;5091681;28;20048;-47
2023/02/23 07:11:54;;;;;;;42.15;20.85;;;;;;;11.14;73.48;98346.88;5091588;28;20085;-47
2023/02/23 07:14:21;;;;;;;40.28;20.75;;;;;;;11.35;73.02;98345.72;5082723;28;20020;-47
2023/02/23 07:16:48;;;;;;;34.72;22.45;;;;;;;11.33;71.87;98345.94;5090362;28;20024;-46
2023/02/23 07:19:16;;;;;;;45.80;21.98;;;;;;;11.22;72.08;98357.13;5091640;28;20497;-46
2023/02/23 07:21:43;;;;;;;31.77;20.67;;;;;;;11.26;72.40;98353.03;5091597;28;20054;-47
2023/02/23 07:24:10;;;;;;;44.28;23.05;;;;;;;11.26;71.57;98357.50;5091604;28;20022;-47
2023/02/23 07:26:40;;;;;;;35.22;22.30;;;;;;;11.34;71.32;98355.41;5084756;28;20028;-46
2023/02/23 07:29:11;;;;;;;36.10;21.45;;;;;;;11.37;71.02;98357.63;5091543;28;20024;-47
2023/02/23 07:31:40;;;;;;;32.08;21.00;;;;;;;11.48;71.47;98358.75;5091470;28;20501;-46
2023/02/23 07:34:08;;;;;;;26.98;17.55;;;;;;;11.64;71.10;98359.25;5091574;28;20016;-47
2023/02/23 07:36:36;;;;;;;30.52;22.02;;;;;;;11.85;70.72;98360.66;5084490;28;20028;-47
2023/02/23 07:39:04;;;;;;;31.52;20.50;;;;;;;12.00;69.36;98358.53;5091545;28;20043;-47
2023/02/23 07:41:32;;;;;;;25.90;17.58;;;;;;;12.17;69.39;98353.50;5091431;28;20058;-47
2023/02/23 07:43:59;;;;;;;35.20;18.75;;;;;;;12.33;69.11;98350.28;5091400;28;20024;-47
2023/02/23 07:46:26;;;;;;;25.73;19.05;;;;;;;12.41;67.71;98351.03;5085591;28;20021;-47
2023/02/23 07:48:53;;;;;;;26.55;18.73;;;;;;;12.39;68.38;98348.59;5095292;28;20024;-47
2023/02/23 07:51:21;;;;;;;26.48;17.80;;;;;;;12.93;68.20;98348.75;5095548;28;20393;-47
2023/02/23 07:53:48;;;;;;;31.40;17.73;;;;;;;13.82;65.92;98348.03;5095178;28;20039;-47
2023/02/23 07:56:15;;;;;;;24.98;18.48;;;;;;;14.51;63.93;98343.69;5095127;28;20020;-47
2023/02/23 07:58:43;;;;;;;27.15;16.63;;;;;;;15.28;62.34;98345.09;5093532;28;20052;-47
2023/02/23 08:01:11;;;;;;;27.45;17.33;;;;;;;15.82;60.24;98335.94;5076097;28;20032;-47
2023/02/23 08:03:38;;;;;;;23.92;17.40;;;;;;;16.09;59.04;98339.47;5073349;28;20376;-47
2023/02/23 08:06:06;;;;;;;31.65;18.88;;;;;;;16.20;58.00;98335.13;5075300;28;20417;-47
2023/02/23 08:08:34;;;;;;;24.70;19.17;;;;;;;16.29;56.92;98330.97;5073356;28;20024;-47
2023/02/23 08:11:03;;;;;;;20.45;16.58;;;;;;;16.37;57.01;98341.13;5092612;28;20028;-47
2023/02/23 08:13:31;;;;;;;24.00;16.00;;;;;;;16.63;56.41;98340.66;5094837;28;20024;-47
2023/02/23 08:15:59;;;;;;;23.58;17.42;;;;;;;16.32;55.72;98341.09;5094754;28;20099;-47
2023/02/23 08:18:28;;;;;;;21.75;17.65;;;;;;;15.92;56.39;98339.50;5094722;28;20508;-47
2023/02/23 08:21:01;;;;;;;31.85;18.85;;;;;;;15.71;57.12;98345.50;5094723;28;20024;-47
2023/02/23 08:23:32;;;;;;;28.02;21.88;;;;;;;15.66;57.19;98342.81;5094441;28;20019;-47
2023/02/23 08:26:00;;;;;;;25.60;20.10;;;;;;;15.43;57.01;98347.19;5094489;28;20496;-47
2023/02/23 08:28:28;;;;;;;23.45;20.95;;;;;;;15.14;58.10;98339.31;5073001;28;20036;-47
2023/02/23 08:30:55;;;;;;;25.52;20.05;;;;;;;15.01;59.54;98341.47;5091426;28;20028;-47
2023/02/23 08:33:22;;;;;;;22.10;18.10;;;;;;;15.81;57.92;98327.16;5072864;28;20043;-47
2023/02/23 08:35:48;;;;;;;24.40;18.00;;;;;;;16.40;56.25;98328.44;5090611;28;20566;-47
2023/02/23 08:38:17;;;;;;;28.33;18.17;;;;;;;16.44;55.49;98327.72;5094356;28;20028;-47
2023/02/23 08:40:47;;;;;;;28.55;18.48;;;;;;;16.36;55.81;98325.53;5072781;28;20441;-47
2023/02/23 08:43:16;;;;;;;26.13;19.08;;;;;;;16.47;55.30;98326.44;5093866;28;20505;-47
2023/02/23 08:45:42;;;;;;;30.45;18.35;;;;;;;16.90;55.37;98322.13;5094178;28;20020;-47
2023/02/23 08:48:09;;;;;;;21.98;17.60;;;;;;;17.08;53.69;98327.09;5094419;28;20421;-47
2023/02/23 08:50:48;;;;;;;22.75;17.98;;;;;;;17.46;53.73;98327.94;5094065;28;20020;-44
2023/02/23 08:53:16;;;;;;;25.45;17.70;;;;;;;17.66;53.29;98334.44;5094085;28;20024;-45
2023/02/23 08:56:00;;;;;;;27.27;18.77;;;;;;;17.81;51.66;98331.91;5093983;28;20102;-45
2023/02/23 08:58:33;;;;;;;21.40;18.52;;;;;;;17.36;52.21;98328.66;5075380;28;20044;-44
2023/02/23 09:01:34;;;;;;;22.02;18.00;;;;;;;16.81;53.98;98329.75;5075727;28;20025;-45
2023/02/23 09:04:10;;;;;;;23.40;18.20;;;;;;;16.76;54.85;98332.28;5093921;28;20059;-45
2023/02/23 09:06:41;;;;;;;30.63;18.80;;;;;;;17.05;54.63;98332.09;5093606;28;20020;-44
2023/02/23 09:09:16;;;;;;;21.48;17.33;;;;;;;17.34;54.12;98333.44;5093814;28;20028;-45
2023/02/23 09:11:53;;;;;;;24.15;18.40;;;;;;;17.49;54.04;98339.91;5075524;28;20024;-45
2023/02/23 09:14:20;;;;;;;26.45;16.65;;;;;;;17.66;53.08;98339.75;5093524;28;20133;-44
2023/02/23 09:16:47;;;;;;;23.67;16.45;;;;;;;18.33;52.06;98335.63;5093586;28;20013;-45
2023/02/23 09:19:15;;;;;;;21.35;16.20;;;;;;;18.62;50.66;98341.34;5093537;28;20048;-45
2023/02/23 09:21:43;;;;;;;22.95;16.85;;;;;;;18.51;50.72;98335.19;5093405;28;20397;-44
2023/02/23 09:24:10;;;;;;;24.95;17.75;;;;;;;18.42;50.22;98331.44;5093472;28;20433;-45
2023/02/23 09:26:41;;;;;;;22.23;16.92;;;;;;;18.19;50.49;98339.81;5093360;28;20024;-44
2023/02/23 09:29:09;;;;;;;23.45;16.63;;;;;;;18.15;51.18;98340.34;5075663;28;20024;-45
2023/02/23 09:31:38;;;;;;;21.98;16.65;;;;;;;18.05;50.35;98337.66;5093198;28;20482;-45
2023/02/23 09:34:09;;;;;;;21.10;16.00;;;;;;;17.74;52.23;98339.28;5075110;28;20035;-44
2023/02/23 09:36:36;;;;;;;21.92;17.52;;;;;;;18.08;52.48;98333.66;5093381;28;20542;-44
2023/02/23 09:39:19;;;;;;;22.98;15.65;;;;;;;18.52;52.06;98336.00;5093182;28;20501;-45
2023/02/23 09:41:59;;;;;;;25.90;14.60;;;;;;;18.88;50.25;98333.47;5093065;28;20111;-45
2023/02/23 09:45:01;;;;;;;20.17;14.43;;;;;;;19.30;48.67;98332.44;5074952;28;20032;-45
2023/02/23 09:48:00;;;;;;;28.85;15.40;;;;;;;19.52;48.17;98327.66;5093027;28;20031;-45
2023/02/23 09:50:33;;;;;;;20.50;14.55;;;;;;;21.07;46.09;98328.72;5074549;28;20489;-45
2023/02/23 09:53:58;;;;;;;26.77;15.18;;;;;;;22.98;43.78;98324.81;5093211;28;20047;-46
2023/02/23 09:56:45;;;;;;;25.80;16.48;;;;;;;24.24;40.25;98322.97;5092808;28;20094;-46
2023/02/23 09:59:19;;;;;;;24.63;17.75;;;;;;;25.22;38.77;98316.31;5085293;28;20047;-46
2023/02/23 10:02:08;;;;;;;35.97;15.68;;;;;;;25.66;37.28;98314.66;5113038;28;20023;-45
2023/02/23 10:04:51;;;;;;;29.88;15.15;;;;;;;24.87;37.33;98312.53;5094743;28;20118;-46
2023/02/23 10:07:36;;;;;;;29.10;15.10;;;;;;;23.77;38.83;98324.94;5112732;28;20024;-46
2023/02/23 10:10:13;;;;;;;18.52;15.05;;;;;;;23.15;40.20;98325.13;5112777;28;20024;-46
2023/02/23 10:13:02;;;;;;;24.13;13.68;;;;;;;23.79;39.08;98316.59;5113001;28;20065;-45
2023/02/23 10:15:35;;;;;;;24.17;13.07;;;;;;;23.73;39.40;98316.66;5112928;28;20047;-45
2023/02/23 10:18:42;;;;;;;24.80;14.45;;;;;;;23.65;39.59;98317.34;5112795;28;20035;-45
2023/02/23 10:21:23;;;;;;;20.55;12.52;;;;;;;23.20;39.16;98309.00;5112684;28;20076;-45
2023/02/23 10:24:06;;;;;;;29.15;13.13;;;;;;;23.29;40.20;98307.22;5112649;28;20023;-45
2023/02/23 10:26:47;;;;;;;26.45;18.40;;;;;;;22.83;40.27;98315.94;5112678;28;20504;-45
2023/02/23 10:29:28;;;;;;;20.80;14.40;;;;;;;22.90;39.84;98311.03;5094472;28;20082;-45
2023/02/23 10:32:04;;;;;;;25.48;14.10;;;;;;;22.26;41.40;98313.22;5112878;28;20374;-46
2023/02/23 10:34:32;;;;;;;27.90;13.25;;;;;;;21.77;41.86;98318.81;5112631;28;20024;-45
2023/02/23 10:37:01;;;;;;;24.67;13.52;;;;;;;21.73;42.44;98314.03;5094444;28;20020;-46
2023/02/23 10:39:30;;;;;;;28.02;13.75;;;;;;;22.14;41.42;98313.59;5094277;28;20515;-45
2023/02/23 10:42:01;;;;;;;20.98;13.25;;;;;;;22.14;41.29;98318.16;5112403;28;20051;-45
2023/02/23 10:44:29;;;;;;;19.25;12.00;;;;;;;21.85;40.71;98315.50;5112507;28;20039;-45
2023/02/23 10:47:11;;;;;;;21.48;13.05;;;;;;;21.40;41.94;98314.84;5112434;28;20018;-45
2023/02/23 10:49:50;;;;;;;26.50;12.90;;;;;;;21.24;42.43;98309.63;5112470;28;20497;-45
2023/02/23 10:52:41;;;;;;;25.52;14.07;;;;;;;21.11;42.92;98313.75;5094106;28;20035;-45
2023/02/23 10:55:29;;;;;;;20.08;14.10;;;;;;;20.80;43.11;98310.47;5112248;28;20031;-45
2023/02/23 10:58:18;;;;;;;18.38;12.80;;;;;;;20.88;43.35;98304.56;5112085;28;20028;-45
2023/02/23 11:01:05;;;;;;;18.60;13.27;;;;;;;21.77;41.72;98302.78;5094056;28;20492;-45
2023/02/23 11:04:25;;;;;;;19.52;13.02;;;;;;;22.29;41.15;98299.25;5093887;28;20031;-45
2023/02/23 11:07:30;;;;;;;25.63;13.60;;;;;;;23.15;39.94;98292.22;5111893;28;20401;-46
2023/02/23 11:10:30;;;;;;;25.58;13.65;;;;;;;23.80;38.69;98286.03;5112086;28;20035;-45
2023/02/23 11:13:33;;;;;;;19.48;12.50;;;;;;;24.03;37.31;98285.03;5111987;28;20516;-46
2023/02/23 11:16:42;;;;;;;17.50;12.73;;;;;;;24.08;37.00;98276.88;5112031;28;20030;-46
2023/02/23 11:19:47;;;;;;;20.17;12.73;;;;;;;25.27;36.32;98269.72;5112117;28;20027;-46
2023/02/23 11:22:51;;;;;;;17.00;13.10;;;;;;;27.33;33.32;98268.09;5116379;28;20027;-46
2023/02/23 11:25:30;;;;;;;23.23;12.45;;;;;;;28.54;31.12;98257.84;5116105;28;20027;-46
2023/02/23 11:28:32;;;;;;;17.60;12.77;;;;;;;29.19;29.64;98257.44;5097840;28;20024;-47
2023/02/23 11:31:33;;;;;;;19.27;11.75;;;;;;;29.65;28.89;98250.88;5116018;28;20031;-46
2023/02/23 11:34:32;;;;;;;16.65;11.20;;;;;;;30.78;27.47;98251.19;5115636;28;20032;-46
2023/02/23 11:37:21;;;;;;;21.05;11.15;;;;;;;31.62;26.97;98242.16;5115980;28;20497;-46
2023/02/23 11:39:56;;;;;;;18.55;11.57;;;;;;;32.01;25.80;98239.59;5115917;28;20028;-46
2023/02/23 11:42:39;;;;;;;26.60;12.13;;;;;;;31.61;25.43;98246.03;5115672;28;20047;-46
2023/02/23 11:45:19;;;;;;;19.95;11.80;;;;;;;31.32;25.59;98246.44;5115800;28;20027;-46
2023/02/23 11:48:03;;;;;;;20.02;11.10;;;;;;;30.95;25.90;98246.63;5097513;28;20031;-46
2023/02/23 11:50:49;;;;;;;16.63;11.05;;;;;;;29.92;26.92;98243.22;5097337;28;20038;-46
2023/02/23 11:53:51;;;;;;;20.08;12.48;;;;;;;28.54;28.79;98236.25;5097330;28;20112;-46
2023/02/23 11:56:24;;;;;;;20.05;11.32;;;;;;;27.22;29.73;98237.97;5097142;28;20449;-46
2023/02/23 11:58:54;;;;;;;21.70;11.93;;;;;;;26.11;31.95;98241.16;5115274;28;20082;-45
2023/02/23 12:01:46;;;;;;;23.80;11.85;;;;;;;25.15;32.69;98235.34;5097210;28;20439;-46
2023/02/23 12:04:29;;;;;;;17.98;12.13;;;;;;;24.16;34.05;98235.19;5088086;28;20100;-45
2023/02/23 12:07:25;;;;;;;22.48;12.45;;;;;;;23.26;35.59;98237.41;5115301;28;20072;-45
2023/02/23 12:10:22;;;;;;;18.30;11.05;;;;;;;23.06;36.84;98235.88;5097100;28;20032;-45
2023/02/23 12:13:06;;;;;;;25.92;12.45;;;;;;;23.12;36.96;98232.84;5115150;28;20028;-45
2023/02/23 12:15:44;;;;;;;35.72;12.20;;;;;;;23.11;37.58;98233.13;5115086;28;20023;-45
2023/02/23 12:18:33;;;;;;;26.55;11.75;;;;;;;22.91;37.84;98229.66;5115259;28;20019;-45
2023/02/23 12:21:29;;;;;;;18.17;11.43;;;;;;;22.51;37.87;98228.41;5096934;28;20078;-45
2023/02/23 12:24:28;;;;;;;25.80;13.15;;;;;;;22.13;38.91;98225.66;5114882;28;20034;-45
2023/02/23 12:27:21;;;;;;;31.05;12.63;;;;;;;21.58;40.42;98230.59;5114958;28;20065;-45
2023/02/23 12:30:05;;;;;;;20.17;12.60;;;;;;;21.24;40.83;98237.56;5114864;28;20401;-45
2023/02/23 12:32:50;;;;;;;43.30;19.30;;;;;;;21.23;41.79;98227.16;5114849;28;20088;-45
2023/02/23 12:35:54;;;;;;;28.17;14.07;;;;;;;21.14;41.69;98222.44;5114819;28;20485;-45
2023/02/23 12:38:31;;;;;;;18.02;12.80;;;;;;;21.00;42.21;98218.03;5114678;28;20027;-45
2023/02/23 12:41:41;;;;;;;28.20;13.38;;;;;;;21.30;42.09;98219.63;5114641;28;20039;-45
2023/02/23 12:44:43;;;;;;;22.13;13.00;;;;;;;22.40;40.38;98209.03;5114485;28;20101;-45
2023/02/23 12:47:46;;;;;;;16.67;11.60;;;;;;;23.95;37.98;98189.25;5096325;28;20027;-46
2023/02/23 12:50:59;;;;;;;15.13;11.25;;;;;;;25.13;35.52;98189.19;5114491;28;20506;-46
2023/02/23 12:54:02;;;;;;;18.95;11.77;;;;;;;25.84;34.48;98191.09;5114407;28;20016;-46
2023/02/23 12:57:28;;;;;;;26.80;11.52;;;;;;;25.96;33.40;98195.88;5096417;28;20089;-47
2023/02/23 13:00:57;;;;;;;20.15;11.15;;;;;;;24.89;34.69;98178.81;5114087;28;20124;-46
2023/02/23 13:03:47;;;;;;;17.90;10.57;;;;;;;24.18;34.85;98187.41;5114222;28;20022;-45
2023/02/23 13:06:29;;;;;;;24.33;11.05;;;;;;;24.38;35.65;98188.06;5114200;28;20023;-46
2023/02/23 13:09:30;;;;;;;13.80;10.75;;;;;;;24.70;34.37;98185.16;5114157;28;20497;-45
2023/02/23 13:12:31;;;;;;;18.63;11.15;;;;;;;23.87;34.99;98190.75;5114162;28;20034;-46
2023/02/23 13:15:36;;;;;;;20.13;11.25;;;;;;;23.03;36.14;98190.97;5114122;28;20076;-45
2023/02/23 13:19:00;;;;;;;17.42;10.98;;;;;;;22.09;37.21;98185.38;5095672;28;20031;-45
2023/02/23 13:22:05;;;;;;;25.55;10.93;;;;;;;22.08;38.18;98191.78;5014404;28;20038;-45
2023/02/23 13:24:58;;;;;;;24.38;12.68;;;;;;;22.06;38.14;98191.28;5014488;28;20038;-45
2023/02/23 13:27:58;;;;;;;24.33;12.30;;;;;;;22.09;38.35;98190.72;5030913;28;20049;-45
2023/02/23 13:30:35;;;;;;;24.02;11.38;;;;;;;22.08;39.13;98189.13;5030871;28;20037;-46
2023/02/23 13:33:36;;;;;;;16.80;10.65;;;;;;;22.32;38.87;98190.97;5030891;28;20037;-46
2023/02/23 13:36:20;;;;;;;17.85;11.50;;;;;;;22.40;38.10;98173.50;5014289;28;20038;-46
2023/02/23 13:39:23;;;;;;;21.03;10.53;;;;;;;22.72;38.20;98175.41;5014239;28;20025;-46